createdAt,value
2019-03-26T00:01:50.112Z,94363.70
2019-03-26T00:04:22.493Z,94370.07
2019-03-26T00:06:54.683Z,94373.30
2019-03-26T00:09:27.007Z,94379.64
2019-03-26T00:11:59.219Z,94386.22
2019-03-26T00:14:31.354Z,94391.64
2019-03-26T00:17:03.402Z,94399.46
2019-03-26T00:19:35.279Z,94402.92
2019-03-26T00:22:07.267Z,94402.97
2019-03-26T00:24:39.428Z,94396.95
2019-03-26T00:27:11.503Z,94404.80
2019-03-26T00:29:43.672Z,94411.66
2019-03-26T00:32:15.819Z,94415.42
2019-03-26T00:34:48.024Z,94417.86
2019-03-26T00:37:20.267Z,94412.98
2019-03-26T00:39:52.456Z,94416.70
2019-03-26T00:42:24.754Z,94426.31
2019-03-26T00:44:56.859Z,94425.82
2019-03-26T00:47:29.322Z,94436.86
2019-03-26T00:50:01.531Z,94437.84
2019-03-26T00:52:34.891Z,94445.66
2019-03-26T00:55:07.898Z,94441.58
2019-03-26T00:57:40.017Z,94443.69
2019-03-26T01:00:14.394Z,94435.23
2019-03-26T01:02:46.676Z,94440.27
2019-03-26T01:05:18.839Z,94445.52
2019-03-26T01:07:51.186Z,94441.11
2019-03-26T01:10:29.104Z,94451.36
2019-03-26T01:13:01.179Z,94447.64
2019-03-26T01:15:33.480Z,94459.21
2019-03-26T01:18:05.904Z,94459.37
2019-03-26T01:20:38.043Z,94464.59
2019-03-26T01:23:10.331Z,94460.00
2019-03-26T01:25:42.797Z,94462.79
2019-03-26T01:28:14.963Z,94468.17
2019-03-26T01:30:47.175Z,94464.75
2019-03-26T01:33:19.528Z,94461.33
2019-03-26T01:35:52.023Z,94458.54
2019-03-26T01:38:24.233Z,94454.95
2019-03-26T01:40:56.174Z,94456.93
2019-03-26T01:43:28.584Z,94466.70
2019-03-26T01:46:00.978Z,94460.84
2019-03-26T01:48:32.920Z,94466.22
2019-03-26T01:51:05.109Z,94477.06
2019-03-26T01:53:37.443Z,94473.80
2019-03-26T01:56:09.596Z,94480.79
2019-03-26T01:58:41.656Z,94493.47
2019-03-26T02:01:13.820Z,94486.83
2019-03-26T02:03:45.951Z,94500.75
2019-03-26T02:06:18.066Z,94497.16
2019-03-26T02:08:51.194Z,94503.78
2019-03-26T02:11:23.327Z,94510.09
2019-03-26T02:13:55.228Z,94513.63
2019-03-26T02:16:27.261Z,94512.95
2019-03-26T02:18:59.215Z,94516.80
2019-03-26T02:21:31.196Z,94515.55
2019-03-26T02:24:03.354Z,94514.88
2019-03-26T02:26:35.609Z,94522.36
2019-03-26T02:29:07.658Z,94529.09
2019-03-26T02:31:39.690Z,94533.94
2019-03-26T02:34:11.792Z,94545.11
2019-03-26T02:36:43.777Z,94541.86
2019-03-26T02:39:15.792Z,94548.84
2019-03-26T02:41:47.729Z,94548.97
2019-03-26T02:44:19.757Z,94540.33
2019-03-26T02:46:51.890Z,94546.46
2019-03-26T02:49:24.178Z,94546.75
2019-03-26T02:51:56.256Z,94556.85
2019-03-26T02:54:28.207Z,94559.56
2019-03-26T02:57:00.441Z,94565.73
2019-03-26T02:59:32.311Z,94568.00
2019-03-26T03:02:04.771Z,94570.95
2019-03-26T03:04:36.826Z,94571.06
2019-03-26T03:07:08.726Z,94583.06
2019-03-26T03:09:40.861Z,94576.94
2019-03-26T03:12:13.034Z,94590.55
2019-03-26T03:14:45.386Z,94604.23
2019-03-26T03:17:17.263Z,94607.91
2019-03-26T03:19:49.127Z,94615.65
2019-03-26T03:22:20.925Z,94617.86
2019-03-26T03:24:52.883Z,94623.23
2019-03-26T03:27:25.011Z,94629.83
2019-03-26T03:29:56.784Z,94632.47
2019-03-26T03:32:28.720Z,94644.19
2019-03-26T03:35:00.959Z,94650.34
2019-03-26T03:37:33.344Z,94651.80
2019-03-26T03:40:06.023Z,94662.00
2019-03-26T03:42:38.387Z,94670.41
2019-03-26T03:45:11.674Z,94673.31
2019-03-26T03:47:42.156Z,94673.20
2019-03-26T03:50:13.578Z,94682.55
2019-03-26T03:52:44.201Z,94680.20
2019-03-26T03:55:14.627Z,94682.89
2019-03-26T03:57:45.915Z,94689.73
2019-03-26T04:00:31.214Z,94691.36
2019-03-26T04:03:01.522Z,94700.11
2019-03-26T04:05:32.007Z,94703.20
2019-03-26T04:08:02.198Z,94706.28
2019-03-26T04:10:32.576Z,94713.14
2019-03-26T04:13:02.869Z,94717.52
2019-03-26T04:15:35.001Z,94726.11
2019-03-26T04:18:05.145Z,94730.16
2019-03-26T04:20:35.503Z,94732.75
2019-03-26T04:23:05.772Z,94736.56
2019-03-26T04:25:36.162Z,94744.53
2019-03-26T04:28:06.452Z,94750.61
2019-03-26T04:30:36.799Z,94753.42
2019-03-26T04:33:07.112Z,94760.50
2019-03-26T04:35:37.410Z,94762.16
2019-03-26T04:38:07.653Z,94763.72
2019-03-26T04:40:38.032Z,94769.05
2019-03-26T04:43:08.302Z,94768.20
2019-03-26T04:45:38.712Z,94774.27
2019-03-26T04:48:09.049Z,94781.58
2019-03-26T04:50:39.287Z,94781.86
2019-03-26T04:53:09.325Z,94787.61
2019-03-26T04:55:39.505Z,94783.16
2019-03-26T04:58:09.790Z,94786.09
2019-03-26T05:00:39.940Z,94796.81
2019-03-26T05:03:10.394Z,94802.89
2019-03-26T05:05:40.601Z,94804.30
2019-03-26T05:08:10.696Z,94814.02
2019-03-26T05:10:40.889Z,94803.77
2019-03-26T05:13:11.326Z,94806.42
2019-03-26T05:15:41.684Z,94812.09
2019-03-26T05:18:11.867Z,94815.21
2019-03-26T05:20:41.881Z,94823.13
2019-03-26T05:23:11.913Z,94822.31
2019-03-26T05:25:41.983Z,94827.64
2019-03-26T05:28:12.073Z,94822.61
2019-03-26T05:30:42.162Z,94829.43
2019-03-26T05:33:12.387Z,94823.63
2019-03-26T05:35:42.407Z,94820.33
2019-03-26T05:38:14.306Z,94833.50
2019-03-26T05:40:44.413Z,94833.80
2019-03-26T05:43:14.641Z,94834.26
2019-03-26T05:45:44.969Z,94828.30
2019-03-26T05:48:15.337Z,94833.81
2019-03-26T05:50:45.369Z,94834.77
2019-03-26T05:53:15.522Z,94830.97
2019-03-26T05:55:45.979Z,94830.94
2019-03-26T05:58:16.483Z,94824.44
2019-03-26T06:00:46.790Z,94826.86
2019-03-26T06:03:17.122Z,94831.27
2019-03-26T06:05:47.431Z,94831.34
2019-03-26T06:08:17.571Z,94832.70
2019-03-26T06:10:48.885Z,94828.44
2019-03-26T06:13:19.179Z,94831.38
2019-03-26T06:15:49.374Z,94832.34
2019-03-26T06:18:19.489Z,94828.73
2019-03-26T06:20:49.795Z,94841.06
2019-03-26T06:23:20.097Z,94838.84
2019-03-26T06:25:50.532Z,94842.86
2019-03-26T06:28:20.987Z,94843.73
2019-03-26T06:30:51.427Z,94847.72
2019-03-26T06:33:21.772Z,94840.75
2019-03-26T06:35:52.023Z,94851.40
2019-03-26T06:38:22.297Z,94843.56
2019-03-26T06:40:52.328Z,94853.78
2019-03-26T06:43:22.594Z,94842.59
2019-03-26T06:45:52.960Z,94851.53
2019-03-26T06:48:23.500Z,94852.61
2019-03-26T06:50:53.542Z,94848.70
2019-03-26T06:53:23.969Z,94856.37
2019-03-26T06:55:54.101Z,94862.27
2019-03-26T06:58:24.509Z,94857.55
2019-03-26T07:00:55.022Z,94858.17
2019-03-26T07:03:25.508Z,94855.77
2019-03-26T07:05:55.819Z,94853.75
2019-03-26T07:08:26.357Z,94858.94
2019-03-26T07:10:56.603Z,94858.91
2019-03-26T07:13:28.106Z,94856.06
2019-03-26T07:15:59.264Z,94857.23
2019-03-26T07:18:29.805Z,94861.84
2019-03-26T07:21:00.060Z,94865.02
2019-03-26T07:23:30.542Z,94865.38
2019-03-26T07:26:00.887Z,94866.70
2019-03-26T07:28:31.299Z,94867.58
2019-03-26T07:31:01.610Z,94866.90
2019-03-26T07:33:31.776Z,94872.86
2019-03-26T07:36:01.993Z,94871.67
2019-03-26T07:38:32.492Z,94879.53
2019-03-26T07:41:02.813Z,94881.55
2019-03-26T07:43:33.278Z,94886.55
2019-03-26T07:46:03.441Z,94882.70
2019-03-26T07:48:33.480Z,94879.80
2019-03-26T07:51:03.834Z,94885.30
2019-03-26T07:53:34.217Z,94888.95
2019-03-26T07:56:04.581Z,94884.84
2019-03-26T07:58:35.042Z,94885.41
2019-03-26T08:01:05.408Z,94886.70
2019-03-26T08:03:35.679Z,94890.98
2019-03-26T08:06:07.021Z,94891.30
2019-03-26T08:08:40.582Z,94887.55
2019-03-26T08:11:09.881Z,94893.48
2019-03-26T08:13:41.141Z,94893.45
2019-03-26T08:16:11.630Z,94892.88
2019-03-26T08:18:42.038Z,94889.77
2019-03-26T08:21:12.430Z,94893.30
2019-03-26T08:23:42.792Z,94891.64
2019-03-26T08:26:13.091Z,94893.59
2019-03-26T08:28:43.472Z,94901.00
2019-03-26T08:31:13.838Z,94894.11
2019-03-26T08:33:44.144Z,94897.25
2019-03-26T08:36:14.595Z,94901.67
2019-03-26T08:38:44.909Z,94903.86
2019-03-26T08:41:15.172Z,94909.78
2019-03-26T08:43:45.358Z,94910.08
2019-03-26T08:46:15.784Z,94913.53
2019-03-26T08:48:46.212Z,94911.82
2019-03-26T08:51:16.555Z,94914.78
2019-03-26T08:53:46.993Z,94912.17
2019-03-26T08:56:17.375Z,94912.85
2019-03-26T08:58:47.669Z,94915.30
2019-03-26T09:01:18.091Z,94917.49
2019-03-26T09:03:48.504Z,94917.83
2019-03-26T09:06:18.790Z,94910.83
2019-03-26T09:08:49.285Z,94913.92
2019-03-26T09:11:19.639Z,94914.65
2019-03-26T09:13:50.114Z,94916.30
2019-03-26T09:16:20.369Z,94918.92
2019-03-26T09:18:50.593Z,94919.09
2019-03-26T09:21:20.821Z,94907.92
2019-03-26T09:23:51.151Z,94908.20
2019-03-26T09:26:21.353Z,94907.11
2019-03-26T09:28:51.686Z,94907.19
2019-03-26T09:31:22.209Z,94912.58
2019-03-26T09:33:52.450Z,94912.32
2019-03-26T09:36:22.677Z,94911.38
2019-03-26T09:38:52.933Z,94914.48
2019-03-26T09:41:23.335Z,94917.77
2019-03-26T09:43:53.809Z,94915.94
2019-03-26T09:46:23.977Z,94908.92
2019-03-26T09:48:54.393Z,94922.63
2019-03-26T09:51:24.798Z,94924.52
2019-03-26T09:53:55.037Z,94931.29
2019-03-26T09:56:30.538Z,94926.44
2019-03-26T09:58:57.309Z,94926.78
2019-03-26T10:01:27.727Z,94929.61
2019-03-26T10:03:57.989Z,94932.34
2019-03-26T10:06:28.274Z,94936.77
2019-03-26T10:08:58.540Z,94932.25
2019-03-26T10:11:28.859Z,94936.78
2019-03-26T10:13:59.205Z,94937.78
2019-03-26T10:16:29.720Z,94949.16
2019-03-26T10:18:59.926Z,94941.48
2019-03-26T10:21:30.464Z,94928.52
2019-03-26T10:24:00.537Z,94941.70
2019-03-26T10:26:30.881Z,94941.36
2019-03-26T10:29:15.103Z,94944.72
2019-03-26T10:31:33.245Z,94949.27
2019-03-26T10:34:03.788Z,94944.88
2019-03-26T10:36:34.208Z,94937.62
2019-03-26T10:39:06.021Z,94931.79
2019-03-26T10:41:36.502Z,94938.64
2019-03-26T10:44:07.618Z,94942.58
2019-03-26T10:46:37.634Z,94939.63
2019-03-26T10:49:08.016Z,94949.27
2019-03-26T10:51:38.455Z,94949.12
2019-03-26T10:54:09.802Z,94940.94
2019-03-26T10:56:39.925Z,94943.88
2019-03-26T10:59:09.950Z,94942.41
2019-03-26T11:01:40.147Z,94941.92
2019-03-26T11:04:10.184Z,94940.13
2019-03-26T11:06:40.738Z,94934.73
2019-03-26T11:09:23.109Z,94936.37
2019-03-26T11:11:43.002Z,94937.00
2019-03-26T11:14:13.373Z,94931.13
2019-03-26T11:16:43.706Z,94938.33
2019-03-26T11:19:13.796Z,94935.40
2019-03-26T11:21:44.001Z,94936.36
2019-03-26T11:24:14.274Z,94933.91
2019-03-26T11:26:44.329Z,94935.70
2019-03-26T11:29:14.508Z,94937.50
2019-03-26T11:31:44.822Z,94932.52
2019-03-26T11:34:15.327Z,94942.98
2019-03-26T11:36:45.672Z,94936.09
2019-03-26T11:39:16.037Z,94931.92
2019-03-26T11:41:46.440Z,94935.34
2019-03-26T11:44:16.748Z,94934.31
2019-03-26T11:46:47.093Z,94932.80
2019-03-26T11:49:17.533Z,94926.39
2019-03-26T11:51:47.708Z,94931.67
2019-03-26T11:54:17.983Z,94932.30
2019-03-26T11:56:48.004Z,94934.02
2019-03-26T11:59:18.172Z,94923.16
2019-03-26T12:01:48.421Z,94929.52
2019-03-26T12:04:19.967Z,94934.75
2019-03-26T12:06:50.302Z,94932.72
2019-03-26T12:09:20.793Z,94929.95
2019-03-26T12:11:51.203Z,94936.98
2019-03-26T12:14:21.531Z,94932.09
2019-03-26T12:16:51.804Z,94932.02
2019-03-26T12:19:22.103Z,94932.05
2019-03-26T12:21:52.259Z,94930.58
2019-03-26T12:24:22.546Z,94931.23
2019-03-26T12:26:52.804Z,94929.02
2019-03-26T12:29:23.115Z,94932.76
2019-03-26T12:31:54.650Z,94937.79
2019-03-26T12:34:25.107Z,94940.13
2019-03-26T12:36:55.431Z,94944.13
2019-03-26T12:39:25.932Z,94947.09
2019-03-26T12:41:56.357Z,94939.78
2019-03-26T12:44:26.492Z,94943.08
2019-03-26T12:46:58.347Z,94944.22
2019-03-26T12:49:28.997Z,94944.52
2019-03-26T12:51:59.505Z,94946.31
2019-03-26T12:54:29.853Z,94949.25
2019-03-26T12:57:00.076Z,94945.27
2019-03-26T12:59:30.359Z,94949.84
2019-03-26T13:02:00.664Z,94945.66
2019-03-26T13:04:30.965Z,94948.28
2019-03-26T13:07:01.440Z,94946.02
2019-03-26T13:09:31.776Z,94943.13
2019-03-26T13:12:01.953Z,94947.66
2019-03-26T13:14:32.121Z,94946.06
2019-03-26T13:17:02.600Z,94946.47
2019-03-26T13:19:32.847Z,94947.13
2019-03-26T13:22:03.077Z,94944.34
2019-03-26T13:24:33.412Z,94950.70
2019-03-26T13:27:03.698Z,94949.40
2019-03-26T13:29:33.893Z,94952.87
2019-03-26T13:32:04.173Z,94948.61
2019-03-26T13:34:34.481Z,94949.42
2019-03-26T13:37:04.725Z,94956.94
2019-03-26T13:39:34.860Z,94952.98
2019-03-26T13:42:05.251Z,94951.19
2019-03-26T13:44:35.852Z,94958.55
2019-03-26T13:47:06.242Z,94960.20
2019-03-26T13:49:36.719Z,94957.92
2019-03-26T13:52:07.062Z,94961.52
2019-03-26T13:54:37.793Z,94964.13
2019-03-26T13:57:07.904Z,94964.45
2019-03-26T13:59:38.197Z,94963.16
2019-03-26T14:02:08.500Z,94965.27
2019-03-26T14:04:38.901Z,94968.41
2019-03-26T14:07:09.415Z,94964.95
2019-03-26T14:09:39.742Z,94974.11
2019-03-26T14:12:10.016Z,94977.86
2019-03-26T14:14:40.040Z,94976.84
2019-03-26T14:17:10.319Z,94977.94
2019-03-26T14:19:40.663Z,94985.29
2019-03-26T14:22:11.095Z,94979.94
2019-03-26T14:24:42.320Z,94977.33
2019-03-26T14:27:12.695Z,94976.70
2019-03-26T14:29:42.994Z,94979.32
2019-03-26T14:32:13.193Z,94977.20
2019-03-26T14:34:51.460Z,94977.52
2019-03-26T14:37:21.596Z,94972.95
2019-03-26T14:39:54.943Z,94971.33
2019-03-26T14:42:25.271Z,94974.77
2019-03-26T14:44:55.325Z,94975.59
2019-03-26T14:47:25.497Z,94979.66
2019-03-26T14:49:55.696Z,94974.94
2019-03-26T14:52:25.874Z,94973.62
2019-03-26T14:54:56.327Z,94979.16
2019-03-26T14:57:26.686Z,94968.89
2019-03-26T14:59:57.013Z,94978.34
2019-03-26T15:02:27.406Z,94984.89
2019-03-26T15:04:57.717Z,94996.15
2019-03-26T15:07:27.824Z,94995.63
2019-03-26T15:09:58.177Z,95000.50
2019-03-26T15:12:28.525Z,95002.92
2019-03-26T15:14:58.856Z,95000.53
2019-03-26T15:17:29.173Z,95004.05
2019-03-26T15:19:59.647Z,94993.52
2019-03-26T15:22:29.916Z,95009.69
2019-03-26T15:25:00.406Z,95014.20
2019-03-26T15:27:30.617Z,95012.89
2019-03-26T15:30:00.694Z,95012.62
2019-03-26T15:32:33.638Z,95012.33
2019-03-26T15:35:03.841Z,95012.52
2019-03-26T15:37:34.229Z,95021.02
2019-03-26T15:40:05.827Z,95021.56
2019-03-26T15:42:35.908Z,95023.08
2019-03-26T15:45:06.636Z,95027.27
2019-03-26T15:47:36.842Z,95023.22
2019-03-26T15:50:07.948Z,95027.76
2019-03-26T15:52:38.195Z,95030.21
2019-03-26T15:55:08.818Z,95030.21
2019-03-26T15:57:39.169Z,95036.55
2019-03-26T16:00:10.470Z,95035.67
2019-03-26T16:02:40.637Z,95035.52
2019-03-26T16:05:10.971Z,95041.77
2019-03-26T16:07:41.153Z,95039.67
2019-03-26T16:10:11.704Z,95041.44
2019-03-26T16:12:42.140Z,95045.49
2019-03-26T16:15:12.546Z,95037.66
2019-03-26T16:17:43.180Z,95039.07
2019-03-26T16:20:13.663Z,95045.20
2019-03-26T16:22:43.993Z,95044.13
2019-03-26T16:25:15.215Z,95048.02
2019-03-26T16:27:45.431Z,95049.78
2019-03-26T16:30:16.087Z,95058.58
2019-03-26T16:32:46.248Z,95054.83
2019-03-26T16:35:16.657Z,95065.23
2019-03-26T16:37:47.009Z,95062.42
2019-03-26T16:40:17.288Z,95069.73
2019-03-26T16:42:47.628Z,95074.58
2019-03-26T16:45:18.078Z,95071.64
2019-03-26T16:47:48.194Z,95070.63
2019-03-26T16:50:18.806Z,95064.30
2019-03-26T16:52:49.146Z,95076.85
2019-03-26T16:55:19.528Z,95084.48
2019-03-26T16:57:50.837Z,95096.38
2019-03-26T17:00:25.062Z,95095.36
2019-03-26T17:02:55.460Z,95098.41
2019-03-26T17:05:27.500Z,95101.22
2019-03-26T17:07:57.828Z,95108.95
2019-03-26T17:10:28.389Z,95102.00
2019-03-26T17:12:58.625Z,95107.77
2019-03-26T17:15:28.983Z,95106.78
2019-03-26T17:17:59.322Z,95111.62
2019-03-26T17:20:29.543Z,95115.82
2019-03-26T17:23:00.013Z,95114.67
2019-03-26T17:25:30.480Z,95121.34
2019-03-26T17:28:00.765Z,95124.49
2019-03-26T17:30:31.333Z,95126.41
2019-03-26T17:33:01.617Z,95132.43
2019-03-26T17:35:32.004Z,95138.56
2019-03-26T17:38:02.071Z,95140.25
2019-03-26T17:40:32.352Z,95142.14
2019-03-26T17:43:02.759Z,95142.47
2019-03-26T17:45:33.136Z,95141.60
2019-03-26T17:48:03.485Z,95147.68
2019-03-26T17:50:33.858Z,95150.98
2019-03-26T17:53:04.300Z,95149.28
2019-03-26T17:55:34.835Z,95163.46
2019-03-26T17:58:06.168Z,95167.69
2019-03-26T18:00:37.627Z,95163.25
2019-03-26T18:03:08.295Z,95169.33
2019-03-26T18:05:38.984Z,95176.66
2019-03-26T18:08:09.011Z,95176.47
2019-03-26T18:10:39.405Z,95173.63
2019-03-26T18:13:09.833Z,95184.37
2019-03-26T18:15:40.266Z,95196.00
2019-03-26T18:18:10.525Z,95199.41
2019-03-26T18:20:41.277Z,95205.44
2019-03-26T18:23:11.761Z,95204.95
2019-03-26T18:25:41.980Z,95209.48
2019-03-26T18:28:12.934Z,95215.74
2019-03-26T18:30:43.529Z,95222.03
2019-03-26T18:33:13.952Z,95223.01
2019-03-26T18:35:44.487Z,95217.54
2019-03-26T18:38:15.124Z,95227.80
2019-03-26T18:40:45.550Z,95225.54
2019-03-26T18:43:15.986Z,95231.52
2019-03-26T18:45:46.869Z,95223.38
2019-03-26T18:48:17.670Z,95231.52
2019-03-26T18:50:48.025Z,95233.57
2019-03-26T18:53:18.868Z,95230.70
2019-03-26T18:55:49.069Z,95234.53
2019-03-26T18:58:19.684Z,95243.30
2019-03-26T19:00:50.026Z,95244.19
2019-03-26T19:03:20.441Z,95240.55
2019-03-26T19:05:50.798Z,95239.40
2019-03-26T19:08:21.080Z,95240.02
2019-03-26T19:10:51.352Z,95238.39
2019-03-26T19:13:21.651Z,95247.34
2019-03-26T19:15:52.082Z,95250.40
2019-03-26T19:18:22.753Z,95246.70
2019-03-26T19:21:02.101Z,95251.20
2019-03-26T19:23:25.952Z,95247.02
2019-03-26T19:25:56.341Z,95250.73
2019-03-26T19:28:26.800Z,95250.73
2019-03-26T19:30:57.221Z,95251.69
2019-03-26T19:33:27.617Z,95258.02
2019-03-26T19:35:57.981Z,95259.94
2019-03-26T19:38:28.297Z,95257.88
2019-03-26T19:40:58.435Z,95267.51
2019-03-26T19:43:28.695Z,95265.08
2019-03-26T19:45:59.417Z,95266.99
2019-03-26T19:48:29.734Z,95268.20
2019-03-26T19:50:59.903Z,95269.78
2019-03-26T19:53:30.623Z,95272.91
2019-03-26T19:56:00.964Z,95270.55
2019-03-26T19:58:31.233Z,95278.58
2019-03-26T20:01:01.527Z,95282.05
2019-03-26T20:03:32.949Z,95287.02
2019-03-26T20:06:12.852Z,95284.90
2019-03-26T20:08:35.137Z,95288.80
2019-03-26T20:11:05.408Z,95282.73
2019-03-26T20:13:35.553Z,95291.99
2019-03-26T20:16:05.903Z,95293.06
2019-03-26T20:18:36.250Z,95292.28
2019-03-26T20:21:06.541Z,95293.53
2019-03-26T20:23:37.472Z,95294.52
2019-03-26T20:26:07.394Z,95298.20
2019-03-26T20:28:37.345Z,95303.20
2019-03-26T20:31:07.354Z,95301.11
2019-03-26T20:33:37.914Z,95303.72
2019-03-26T20:36:07.940Z,95308.59
2019-03-26T20:38:38.093Z,95308.27
2019-03-26T20:41:08.075Z,95314.54
2019-03-26T20:43:39.325Z,95317.12
2019-03-26T20:46:09.925Z,95316.70
2019-03-26T20:48:41.800Z,95312.81
2019-03-26T20:51:11.910Z,95313.38
2019-03-26T20:53:42.384Z,95315.63
2019-03-26T20:56:12.536Z,95316.45
2019-03-26T20:58:43.213Z,95312.09
2019-03-26T21:01:13.723Z,95316.80
2019-03-26T21:03:43.804Z,95326.92
2019-03-26T21:06:14.108Z,95332.47
2019-03-26T21:08:44.155Z,95334.60
2019-03-26T21:11:14.156Z,95343.32
2019-03-26T21:13:50.645Z,95331.31
2019-03-26T21:16:16.135Z,95340.27
2019-03-26T21:18:47.622Z,95347.68
2019-03-26T21:21:17.900Z,95345.91
2019-03-26T21:23:48.873Z,95346.48
2019-03-26T21:26:19.024Z,95348.98
2019-03-26T21:28:49.190Z,95347.68
2019-03-26T21:31:19.827Z,95349.92
2019-03-26T21:33:50.178Z,95351.09
2019-03-26T21:36:20.450Z,95357.55
2019-03-26T21:38:51.518Z,95362.73
2019-03-26T21:41:21.888Z,95367.67
2019-03-26T21:44:03.497Z,95377.19
2019-03-26T21:46:23.969Z,95379.55
2019-03-26T21:48:54.133Z,95379.42
2019-03-26T21:51:24.405Z,95380.49
2019-03-26T21:53:54.524Z,95386.84
2019-03-26T21:56:24.626Z,95384.02
2019-03-26T21:58:54.986Z,95392.14
2019-03-26T22:01:25.191Z,95395.58
2019-03-26T22:03:55.483Z,95398.17
2019-03-26T22:06:25.958Z,95400.50
2019-03-26T22:08:56.027Z,95403.47
2019-03-26T22:11:26.191Z,95405.67
2019-03-26T22:13:56.347Z,95404.37
2019-03-26T22:16:26.384Z,95408.74
2019-03-26T22:18:57.322Z,95411.59
2019-03-26T22:21:27.455Z,95422.91
2019-03-26T22:23:57.695Z,95417.94
2019-03-26T22:26:27.750Z,95411.45
2019-03-26T22:28:57.968Z,95416.42
2019-03-26T22:31:27.944Z,95412.63
2019-03-26T22:33:58.044Z,95418.27
2019-03-26T22:36:28.025Z,95414.98
2019-03-26T22:38:57.952Z,95409.94
2019-03-26T22:41:27.993Z,95416.52
2019-03-26T22:43:57.975Z,95420.40
2019-03-26T22:46:28.000Z,95428.66
2019-03-26T22:48:57.944Z,95426.08
2019-03-26T22:51:28.080Z,95428.91
2019-03-26T22:53:58.055Z,95419.70
2019-03-26T22:56:28.214Z,95435.86
2019-03-26T22:58:58.449Z,95434.18
2019-03-26T23:01:28.567Z,95435.86
2019-03-26T23:03:58.497Z,95427.82
2019-03-26T23:06:28.724Z,95425.13
2019-03-26T23:08:58.935Z,95425.83
2019-03-26T23:11:28.864Z,95437.98
2019-03-26T23:13:59.065Z,95433.28
2019-03-26T23:16:29.194Z,95434.33
2019-03-26T23:18:59.321Z,95436.09
2019-03-26T23:21:29.534Z,95437.52
2019-03-26T23:23:59.628Z,95437.39
2019-03-26T23:26:30.088Z,95434.58
2019-03-26T23:29:00.144Z,95429.02
2019-03-26T23:31:30.364Z,95436.92
2019-03-26T23:34:00.455Z,95434.80
2019-03-26T23:36:30.410Z,95437.17
2019-03-26T23:39:00.557Z,95444.69
2019-03-26T23:41:32.452Z,95444.69
2019-03-26T23:44:02.547Z,95437.98
2019-03-26T23:46:32.790Z,95442.22
2019-03-26T23:49:02.933Z,95442.57
2019-03-26T23:51:33.200Z,95445.28
2019-03-26T23:54:03.149Z,95441.01
2019-03-26T23:56:33.145Z,95436.77
2019-03-26T23:59:03.470Z,95435.25
